Time;durP1;ratioP1;P1;durP2;ratioP2;P2;SDS_P1;SDS_P2;PMS_P1;PMS_P2;Temp;Humidity;BMP_temperature;BMP_pressure;BME280_temperature;BME280_humidity;BME280_pressure;Samples;Min_cycle;Max_cycle;Signal;HPM_P1;HPM_P2
2023/10/31 00:01:50;;;;;;;12.88;6.57;;;;;;;17.40;57.50;99848.53;5113035;28;20027;-26
2023/10/31 00:04:16;;;;;;;11.40;6.82;;;;;;;17.45;56.52;99850.50;5112626;28;20110;-25
2023/10/31 00:06:41;;;;;;;12.02;6.57;;;;;;;17.45;57.26;99845.13;5112806;28;20032;-26
2023/10/31 00:09:07;;;;;;;12.18;7.18;;;;;;;17.34;57.04;99828.84;5112847;28;20024;-25
2023/10/31 00:11:32;;;;;;;14.70;6.82;;;;;;;17.41;57.19;99835.91;5112619;28;20035;-26
2023/10/31 00:13:58;;;;;;;15.30;6.93;;;;;;;17.39;57.47;99841.53;5112703;28;20059;-26
2023/10/31 00:16:23;;;;;;;15.07;7.03;;;;;;;17.31;57.09;99837.38;5112306;28;20027;-26
2023/10/31 00:18:49;;;;;;;11.68;6.25;;;;;;;17.26;57.50;99836.50;5112244;28;20462;-26
2023/10/31 00:21:14;;;;;;;13.13;6.72;;;;;;;17.18;57.89;99843.91;5112127;28;20031;-26
2023/10/31 00:23:47;;;;;;;11.40;6.63;;;;;;;17.15;58.01;99839.03;5112349;28;20016;-26
2023/10/31 00:26:13;;;;;;;13.65;6.90;;;;;;;17.12;57.82;99833.31;5111738;28;20106;-26
2023/10/31 00:28:38;;;;;;;14.32;6.93;;;;;;;17.09;57.95;99837.28;5112750;28;20451;-26
2023/10/31 00:31:05;;;;;;;16.42;7.38;;;;;;;17.04;58.22;99831.00;5111846;28;20078;-26
2023/10/31 00:33:30;;;;;;;14.63;7.15;;;;;;;17.02;58.42;99830.44;5112068;28;20043;-26
2023/10/31 00:35:56;;;;;;;10.48;6.80;;;;;;;16.84;58.92;99826.94;5111688;28;20100;-26
2023/10/31 00:38:21;;;;;;;12.73;7.35;;;;;;;16.93;58.49;99822.78;5112010;28;20035;-26
2023/10/31 00:40:47;;;;;;;11.65;6.65;;;;;;;16.84;58.73;99828.81;5112227;28;20019;-26
2023/10/31 00:43:12;;;;;;;9.75;6.43;;;;;;;16.76;59.14;99830.00;5112415;28;20496;-26
2023/10/31 00:45:38;;;;;;;12.85;7.00;;;;;;;16.80;59.68;99825.75;5112200;28;20079;-26
2023/10/31 00:48:03;;;;;;;14.40;6.88;;;;;;;16.99;58.55;99824.50;5111916;28;20047;-26
2023/10/31 00:50:29;;;;;;;14.55;7.15;;;;;;;16.92;59.03;99817.66;5112152;28;20031;-26
2023/10/31 00:52:54;;;;;;;12.90;6.95;;;;;;;16.81;59.16;99819.31;5112148;28;20383;-26
2023/10/31 00:55:20;;;;;;;13.52;6.50;;;;;;;16.71;59.68;99817.28;5112074;28;20028;-26
2023/10/31 00:57:45;;;;;;;11.43;6.22;;;;;;;16.66;59.13;99806.47;5111791;28;20478;-26
2023/10/31 01:00:11;;;;;;;12.35;6.32;;;;;;;16.92;58.60;99812.28;5111983;28;20066;-26
2023/10/31 01:02:36;;;;;;;12.13;6.57;;;;;;;16.77;58.92;99816.31;5111923;28;20088;-26
2023/10/31 01:05:02;;;;;;;11.15;6.88;;;;;;;16.70;59.41;99815.66;5111741;28;20016;-26
2023/10/31 01:07:27;;;;;;;12.43;6.60;;;;;;;16.61;58.79;99809.03;5111702;28;20471;-26
2023/10/31 01:09:53;;;;;;;12.57;6.22;;;;;;;16.55;59.28;99810.81;5111198;28;20035;-26
2023/10/31 01:12:18;;;;;;;13.68;6.63;;;;;;;16.52;59.08;99807.81;5111388;28;20126;-26
2023/10/31 01:14:43;;;;;;;11.25;6.25;;;;;;;16.58;59.63;99814.88;5111346;28;20530;-26
2023/10/31 01:17:09;;;;;;;13.18;6.43;;;;;;;16.56;58.99;99815.16;5111343;27;20081;-26
2023/10/31 01:19:34;;;;;;;14.18;6.32;;;;;;;16.42;59.88;99806.56;5115596;27;20023;-26
2023/10/31 01:21:59;;;;;;;18.52;6.75;;;;;;;16.46;59.96;99814.94;5119663;27;20102;-26
2023/10/31 01:24:25;;;;;;;11.52;6.53;;;;;;;16.35;60.08;99818.50;5125731;27;20680;-26
2023/10/31 01:26:50;;;;;;;8.93;6.40;;;;;;;16.44;59.95;99810.88;5129678;27;20023;-26
2023/10/31 01:29:16;;;;;;;12.80;6.80;;;;;;;16.43;60.02;99812.75;5111180;28;20459;-26
2023/10/31 01:31:41;;;;;;;14.85;6.50;;;;;;;16.39;59.50;99809.72;5110981;28;20055;-26
2023/10/31 01:34:08;;;;;;;15.60;6.60;;;;;;;16.30;60.09;99808.47;5111399;28;20031;-26
2023/10/31 01:36:33;;;;;;;13.15;6.70;;;;;;;16.27;60.54;99805.47;5117724;27;20031;-26
2023/10/31 01:38:59;;;;;;;10.70;6.38;;;;;;;16.20;60.81;99803.72;5113141;27;20035;-26
2023/10/31 01:41:24;;;;;;;10.95;6.45;;;;;;;16.26;59.87;99799.28;5110875;28;20050;-26
2023/10/31 01:43:50;;;;;;;9.55;6.45;;;;;;;16.27;60.25;99805.47;5113240;28;20016;-26
2023/10/31 01:46:15;;;;;;;13.60;6.53;;;;;;;16.12;60.82;99801.41;5110655;28;20035;-26
2023/10/31 01:48:42;;;;;;;13.95;6.22;;;;;;;16.07;61.01;99803.19;5122849;27;20035;-26
2023/10/31 01:51:09;;;;;;;12.15;6.40;;;;;;;16.08;60.57;99802.94;5131588;27;20125;-26
2023/10/31 01:53:35;;;;;;;11.10;6.60;;;;;;;16.28;60.46;99801.69;5121309;27;20085;-26
2023/10/31 01:56:01;;;;;;;10.60;6.40;;;;;;;16.20;59.86;99800.22;5110899;28;20027;-26
2023/10/31 01:58:35;;;;;;;11.20;6.75;;;;;;;16.29;59.87;99797.97;5117469;28;20506;-26
2023/10/31 02:01:00;;;;;;;12.60;6.32;;;;;;;16.29;60.35;99792.59;5131127;27;20031;-26
2023/10/31 02:03:29;;;;;;;15.98;6.72;;;;;;;16.36;60.28;99796.78;5131485;27;20023;-26
2023/10/31 02:05:56;;;;;;;11.18;6.50;;;;;;;16.36;60.01;99783.34;5131490;27;20035;-27
2023/10/31 02:08:21;;;;;;;14.65;7.13;;;;;;;16.21;59.80;99786.56;5131103;27;20164;-26
2023/10/31 02:10:47;;;;;;;11.05;6.57;;;;;;;15.96;61.52;99786.06;5131042;27;20210;-26
2023/10/31 02:13:17;;;;;;;13.23;6.80;;;;;;;15.74;61.29;99781.31;5102682;27;20051;-26
2023/10/31 02:15:43;;;;;;;13.00;7.15;;;;;;;15.75;61.57;99782.16;5090518;28;20028;-26
2023/10/31 02:18:09;;;;;;;10.55;6.68;;;;;;;15.78;61.13;99785.19;5090273;28;20024;-27
2023/10/31 02:20:35;;;;;;;12.38;6.93;;;;;;;15.74;61.83;99777.81;5090355;28;20031;-26
2023/10/31 02:23:01;;;;;;;11.95;6.68;;;;;;;15.79;61.26;99777.94;5112964;28;20031;-26
2023/10/31 02:25:26;;;;;;;10.93;6.63;;;;;;;15.59;61.91;99770.25;5131039;27;20041;-26
2023/10/31 02:27:52;;;;;;;11.65;6.28;;;;;;;15.44;62.37;99778.78;5131143;28;20448;-26
2023/10/31 02:30:17;;;;;;;13.27;7.00;;;;;;;15.53;61.76;99776.56;5130614;27;20031;-26
2023/10/31 02:32:43;;;;;;;13.35;6.97;;;;;;;15.48;61.81;99784.47;5131083;27;20091;-27
2023/10/31 02:35:09;;;;;;;10.95;6.82;;;;;;;15.58;62.24;99792.75;5124108;27;20030;-27
2023/10/31 02:37:34;;;;;;;11.98;6.82;;;;;;;15.66;61.65;99788.91;5110585;28;20209;-27
2023/10/31 02:40:00;;;;;;;10.90;6.70;;;;;;;15.69;61.54;99799.97;5110450;28;20062;-27
2023/10/31 02:42:26;;;;;;;11.90;6.88;;;;;;;15.76;61.03;99794.50;5110121;28;20031;-27
2023/10/31 02:44:51;;;;;;;10.43;7.28;;;;;;;15.68;61.07;99800.22;5110358;28;20021;-27
2023/10/31 02:47:16;;;;;;;12.13;6.93;;;;;;;15.61;61.61;99792.28;5110430;28;20027;-26
2023/10/31 02:49:42;;;;;;;11.13;7.07;;;;;;;15.59;62.19;99800.56;5112123;28;20023;-26
2023/10/31 02:52:07;;;;;;;15.35;7.82;;;;;;;15.53;62.39;99796.13;5114020;27;20027;-26
2023/10/31 02:54:33;;;;;;;10.43;7.20;;;;;;;15.34;62.85;99797.31;5113919;28;20032;-26
2023/10/31 02:56:58;;;;;;;14.00;7.18;;;;;;;15.29;62.69;99789.16;5113910;28;20486;-26
2023/10/31 02:59:23;;;;;;;13.20;7.07;;;;;;;15.22;63.46;99797.31;5126707;27;20144;-26
2023/10/31 03:01:49;;;;;;;14.98;7.07;;;;;;;15.42;62.29;99796.94;5131790;27;20023;-26
2023/10/31 03:04:14;;;;;;;15.63;7.25;;;;;;;15.57;62.15;99796.47;5113923;28;20020;-26
2023/10/31 03:06:40;;;;;;;14.52;7.05;;;;;;;15.45;62.43;99791.94;5113784;28;20027;-27
2023/10/31 03:09:06;;;;;;;11.40;6.82;;;;;;;15.19;63.03;99782.53;5113586;28;20034;-27
2023/10/31 03:11:32;;;;;;;14.45;7.22;;;;;;;15.18;63.06;99791.59;5113593;28;20028;-26
2023/10/31 03:13:58;;;;;;;11.70;7.20;;;;;;;15.36;62.43;99776.44;5113490;28;20031;-26
2023/10/31 03:16:24;;;;;;;11.35;7.30;;;;;;;15.41;62.39;99790.78;5113728;28;20055;-26
2023/10/31 03:18:49;;;;;;;12.48;7.43;;;;;;;15.41;61.87;99793.47;5113858;28;20034;-26
2023/10/31 03:21:16;;;;;;;17.40;7.78;;;;;;;15.31;62.32;99777.16;5113445;28;20110;-26
2023/10/31 03:23:43;;;;;;;12.65;7.40;;;;;;;15.17;62.63;99789.16;5113653;28;20107;-25
2023/10/31 03:26:08;;;;;;;14.73;7.82;;;;;;;15.11;62.29;99761.41;5112904;28;20111;-25
2023/10/31 03:28:34;;;;;;;10.93;7.15;;;;;;;15.26;62.55;99790.44;5113133;28;20103;-26
2023/10/31 03:30:59;;;;;;;13.05;7.20;;;;;;;14.96;62.83;99764.53;5113456;28;20067;-25
2023/10/31 03:33:24;;;;;;;13.65;7.32;;;;;;;15.22;62.76;99778.56;5113084;28;20098;-27
2023/10/31 03:35:50;;;;;;;11.93;7.07;;;;;;;15.29;62.27;99789.16;5113298;28;20462;-25
2023/10/31 03:38:15;;;;;;;11.93;7.07;;;;;;;15.30;61.71;99780.88;5113594;28;20070;-26
2023/10/31 03:40:41;;;;;;;14.40;7.07;;;;;;;15.15;62.73;99784.00;5113161;28;20126;-26
2023/10/31 03:43:06;;;;;;;19.85;7.97;;;;;;;15.14;62.68;99785.06;5113270;28;20149;-26
2023/10/31 03:45:32;;;;;;;15.38;7.80;;;;;;;15.15;62.92;99783.22;5112682;28;20019;-26
2023/10/31 03:47:58;;;;;;;13.00;7.53;;;;;;;15.19;62.77;99782.53;5112866;28;20019;-26
2023/10/31 03:50:23;;;;;;;13.43;7.57;;;;;;;15.14;62.26;99790.44;5112991;28;20292;-26
2023/10/31 03:52:48;;;;;;;16.40;7.80;;;;;;;15.03;63.06;99785.88;5112660;28;20376;-26
2023/10/31 03:55:14;;;;;;;11.43;6.70;;;;;;;14.93;62.95;99785.66;5112612;28;20031;-27
2023/10/31 03:57:39;;;;;;;15.18;7.63;;;;;;;15.10;62.91;99793.78;5112985;28;20035;-26
2023/10/31 04:00:07;;;;;;;11.30;7.38;;;;;;;14.76;63.60;99801.56;5112319;28;20035;-26
2023/10/31 04:02:33;;;;;;;12.43;7.38;;;;;;;14.71;64.10;99793.41;5112214;28;20054;-26
2023/10/31 04:04:59;;;;;;;11.63;7.68;;;;;;;14.72;64.29;99797.72;5112650;28;20407;-26
2023/10/31 04:07:24;;;;;;;15.50;7.97;;;;;;;14.77;64.90;99795.97;5112344;28;20046;-26
2023/10/31 04:09:50;;;;;;;14.70;7.65;;;;;;;14.82;64.43;99804.13;5112709;28;20454;-26
2023/10/31 04:12:16;;;;;;;13.93;7.68;;;;;;;14.79;64.27;99804.59;5112427;28;20059;-26
2023/10/31 04:14:41;;;;;;;12.43;7.38;;;;;;;14.78;63.88;99802.16;5112483;27;20115;-26
2023/10/31 04:17:07;;;;;;;17.52;8.63;;;;;;;14.73;64.08;99800.16;5112126;28;20103;-26
2023/10/31 04:19:32;;;;;;;10.10;7.47;;;;;;;14.81;64.53;99797.16;5112362;28;20397;-26
2023/10/31 04:21:57;;;;;;;13.65;8.95;;;;;;;14.76;64.12;99794.34;5112291;28;20030;-26
2023/10/31 04:24:23;;;;;;;17.20;11.50;;;;;;;14.76;63.80;99797.03;5111958;28;20471;-26
2023/10/31 04:26:48;;;;;;;14.32;8.02;;;;;;;14.84;63.34;99793.19;5112092;28;20066;-26
2023/10/31 04:29:14;;;;;;;13.80;7.45;;;;;;;14.76;63.62;99797.03;5112167;28;20100;-26
2023/10/31 04:31:39;;;;;;;13.30;7.88;;;;;;;14.73;64.39;99800.16;5111914;28;20522;-26
2023/10/31 04:34:05;;;;;;;12.50;8.18;;;;;;;14.73;63.96;99791.31;5112017;28;20103;-26
2023/10/31 04:36:30;;;;;;;12.75;7.85;;;;;;;14.57;65.14;99788.25;5111950;27;20156;-26
2023/10/31 04:38:55;;;;;;;13.68;8.10;;;;;;;14.65;64.30;99785.22;5112069;28;20363;-25
2023/10/31 04:41:21;;;;;;;13.73;8.10;;;;;;;14.70;64.57;99792.59;5111844;28;20039;-27
2023/10/31 04:43:46;;;;;;;16.33;7.95;;;;;;;14.72;63.76;99785.13;5111633;28;20019;-27
2023/10/31 04:46:11;;;;;;;12.07;8.02;;;;;;;14.70;63.53;99776.53;5111851;28;20447;-27
2023/10/31 04:48:37;;;;;;;14.27;8.05;;;;;;;14.67;64.24;99779.66;5111668;28;20031;-27
2023/10/31 04:51:03;;;;;;;18.17;8.10;;;;;;;14.67;64.58;99776.97;5112263;28;20023;-27
2023/10/31 04:53:28;;;;;;;22.67;9.30;;;;;;;14.81;63.13;99778.41;5111904;28;20027;-26
2023/10/31 04:55:53;;;;;;;14.93;8.38;;;;;;;14.69;64.35;99772.19;5111480;28;20033;-27
2023/10/31 04:58:19;;;;;;;11.40;8.52;;;;;;;14.69;64.19;99776.75;5111418;28;20051;-26
2023/10/31 05:00:46;;;;;;;18.05;9.85;;;;;;;14.60;63.34;99773.56;5111962;28;20035;-27
2023/10/31 05:03:11;;;;;;;18.25;9.85;;;;;;;14.61;63.79;99773.34;5112441;28;20104;-27
2023/10/31 05:05:36;;;;;;;13.80;8.73;;;;;;;14.53;64.33;99775.53;5122738;27;20112;-27
2023/10/31 05:08:02;;;;;;;17.85;9.25;;;;;;;14.66;64.10;99772.66;5132806;27;20097;-27
2023/10/31 05:10:27;;;;;;;14.00;9.48;;;;;;;14.70;63.42;99765.81;5132601;27;20023;-26
2023/10/31 05:12:53;;;;;;;17.13;9.38;;;;;;;14.87;63.20;99765.94;5132573;27;20098;-27
2023/10/31 05:15:19;;;;;;;19.42;10.30;;;;;;;14.92;63.41;99768.72;5133359;27;20037;-27
2023/10/31 05:17:44;;;;;;;17.50;10.65;;;;;;;15.15;63.46;99765.25;5133331;27;20481;-27
2023/10/31 05:20:10;;;;;;;18.75;10.15;;;;;;;15.42;62.19;99765.63;5133074;27;20026;-28
2023/10/31 05:22:36;;;;;;;22.42;11.95;;;;;;;15.58;62.67;99761.38;5132802;27;20023;-28
2023/10/31 05:25:02;;;;;;;20.25;9.20;;;;;;;15.62;62.31;99762.53;5132891;27;20336;-28
2023/10/31 05:27:28;;;;;;;25.90;10.63;;;;;;;15.83;61.31;99771.03;5132685;27;20042;-28
2023/10/31 05:29:54;;;;;;;21.92;9.55;;;;;;;16.05;60.77;99768.53;5105446;27;20420;-27
2023/10/31 05:32:19;;;;;;;16.02;10.35;;;;;;;16.42;60.07;99784.25;5110734;28;20048;-27
2023/10/31 05:34:44;;;;;;;31.50;10.38;;;;;;;16.83;59.40;99786.88;5112304;28;20080;-27
2023/10/31 05:37:10;;;;;;;47.55;14.30;;;;;;;16.92;58.79;99788.91;5112326;28;20074;-28
2023/10/31 05:39:36;;;;;;;35.45;17.00;;;;;;;17.30;58.49;99798.09;5112158;28;20644;-26
2023/10/31 05:42:02;;;;;;;32.72;19.13;;;;;;;17.31;57.20;99801.63;5111925;28;20399;-27
2023/10/31 05:44:28;;;;;;;47.97;33.65;;;;;;;17.65;57.56;99801.53;5112344;28;20024;-26
2023/10/31 05:46:53;;;;;;;24.52;12.20;;;;;;;17.92;57.42;99809.75;5112527;28;20027;-27
2023/10/31 05:49:19;;;;;;;20.70;9.48;;;;;;;18.21;56.01;99804.16;5112508;28;20102;-29
2023/10/31 05:51:45;;;;;;;20.23;8.70;;;;;;;18.51;55.17;99817.13;5111427;28;20133;-27
2023/10/31 05:54:11;;;;;;;22.17;10.20;;;;;;;18.97;53.78;99814.09;5111556;28;20403;-27
2023/10/31 05:56:36;;;;;;;20.63;7.97;;;;;;;19.38;52.38;99812.50;5111892;28;20448;-27
2023/10/31 05:59:01;;;;;;;19.55;8.13;;;;;;;19.24;52.20;99811.31;5111580;28;20059;-28
2023/10/31 06:01:27;;;;;;;20.42;8.40;;;;;;;19.74;51.56;99823.50;5111829;28;20115;-28
2023/10/31 06:03:53;;;;;;;15.40;7.93;;;;;;;20.05;50.28;99821.78;5112227;28;20043;-27
2023/10/31 06:06:18;;;;;;;12.90;7.50;;;;;;;20.14;49.15;99813.97;5114861;28;20447;-33
2023/10/31 06:08:44;;;;;;;12.13;7.57;;;;;;;20.27;49.34;99826.16;5129320;27;20019;-26
2023/10/31 06:11:12;;;;;;;40.05;27.70;;;;;;;20.72;48.50;99821.97;5129280;27;20051;-27
2023/10/31 06:13:37;;;;;;;17.63;10.75;;;;;;;21.14;47.17;99829.03;5126793;28;20031;-27
2023/10/31 06:16:03;;;;;;;13.45;7.00;;;;;;;21.31;46.87;99827.94;5132354;27;20083;-27
2023/10/31 06:18:28;;;;;;;12.68;6.82;;;;;;;21.64;46.05;99821.94;5124608;27;20456;-27
2023/10/31 06:20:54;;;;;;;11.43;7.25;;;;;;;21.99;44.84;99813.97;5111674;28;20038;-27
2023/10/31 06:23:19;;;;;;;12.70;6.60;;;;;;;22.19;44.20;99811.16;5111811;28;20540;-27
2023/10/31 06:25:44;;;;;;;8.25;6.07;;;;;;;22.56;43.13;99822.63;5115515;28;20042;-27
2023/10/31 06:28:10;;;;;;;11.68;6.28;;;;;;;22.71;42.94;99821.72;5115527;28;20098;-26
2023/10/31 06:30:36;;;;;;;15.63;7.00;;;;;;;22.90;42.22;99819.16;5115298;28;20043;-28
2023/10/31 06:33:01;;;;;;;11.38;6.30;;;;;;;22.98;42.03;99826.66;5109174;28;20050;-26
2023/10/31 06:35:27;;;;;;;9.27;6.50;;;;;;;23.41;41.36;99819.53;5111215;28;20020;-27
2023/10/31 06:37:55;;;;;;;13.48;5.90;;;;;;;23.90;40.04;99816.88;5111957;27;20023;-27
2023/10/31 06:40:21;;;;;;;13.25;6.45;;;;;;;24.22;39.58;99820.78;5123365;27;20022;-27
2023/10/31 06:42:46;;;;;;;9.73;6.22;;;;;;;24.18;39.52;99828.75;5122414;27;20402;-27
2023/10/31 06:45:12;;;;;;;15.52;6.30;;;;;;;24.56;39.16;99829.59;5123648;27;20007;-27
2023/10/31 06:47:37;;;;;;;10.73;5.70;;;;;;;24.74;38.46;99827.16;5123889;27;20023;-28
2023/10/31 06:50:02;;;;;;;11.65;5.80;;;;;;;24.81;38.40;99824.88;5131452;27;20019;-27
2023/10/31 06:52:28;;;;;;;10.77;5.57;;;;;;;24.93;38.14;99825.22;5130439;27;20501;-27
2023/10/31 06:54:53;;;;;;;13.27;6.32;;;;;;;25.04;38.50;99833.22;5136389;27;20031;-27
2023/10/31 06:57:19;;;;;;;9.55;5.57;;;;;;;25.02;38.56;99819.09;5136448;27;20024;-27
2023/10/31 06:59:44;;;;;;;7.68;5.65;;;;;;;25.23;38.23;99823.13;5136303;27;20031;-27
2023/10/31 07:02:10;;;;;;;10.45;5.68;;;;;;;25.47;38.03;99824.88;5135526;27;20023;-27
2023/10/31 07:04:35;;;;;;;9.40;5.25;;;;;;;25.53;37.35;99815.50;5135479;27;20015;-27
2023/10/31 07:07:00;;;;;;;12.18;5.75;;;;;;;25.76;37.13;99813.72;5134726;27;20015;-27
2023/10/31 07:09:27;;;;;;;11.13;5.90;;;;;;;25.94;37.06;99812.00;5125270;27;20469;-27
2023/10/31 07:11:52;;;;;;;10.27;5.22;;;;;;;26.03;37.23;99809.38;5123369;27;20020;-29
2023/10/31 07:14:18;;;;;;;13.75;5.68;;;;;;;26.17;36.40;99806.63;5120243;27;20692;-31
2023/10/31 07:16:44;;;;;;;11.40;5.60;;;;;;;26.16;36.26;99807.72;5113610;27;20031;-27
2023/10/31 07:19:12;;;;;;;10.77;5.40;;;;;;;26.37;36.06;99798.00;5112688;27;20156;-26
2023/10/31 07:21:37;;;;;;;17.07;6.20;;;;;;;26.51;35.65;99800.66;5092849;28;20020;-29
2023/10/31 07:24:03;;;;;;;17.33;6.70;;;;;;;26.66;35.79;99803.06;5115372;27;20030;-27
2023/10/31 07:26:28;;;;;;;12.10;5.90;;;;;;;26.77;34.62;99805.53;5095175;28;20032;-26
2023/10/31 07:28:54;;;;;;;11.55;5.75;;;;;;;26.82;35.20;99802.69;5093621;28;20031;-26
2023/10/31 07:31:19;;;;;;;9.88;6.13;;;;;;;26.98;35.01;99795.75;5104603;28;20522;-27
2023/10/31 07:33:45;;;;;;;11.05;5.85;;;;;;;27.00;34.75;99790.78;5113000;28;20110;-27
2023/10/31 07:36:11;;;;;;;13.30;5.88;;;;;;;26.63;35.18;99791.94;5111573;28;20406;-27
2023/10/31 07:38:36;;;;;;;11.30;5.90;;;;;;;26.82;35.26;99794.50;5113236;28;20050;-26
2023/10/31 07:41:01;;;;;;;10.73;5.97;;;;;;;27.03;35.09;99797.53;5113185;28;20403;-27
2023/10/31 07:43:27;;;;;;;15.73;5.85;;;;;;;27.27;34.55;99794.47;5113207;28;20406;-27
2023/10/31 07:45:52;;;;;;;10.23;5.78;;;;;;;27.36;34.26;99797.25;5113175;28;20027;-27
2023/10/31 07:48:18;;;;;;;14.68;5.72;;;;;;;27.42;34.35;99785.06;5113129;28;20023;-27
2023/10/31 07:50:43;;;;;;;13.73;6.03;;;;;;;27.39;34.54;99783.75;5112575;28;20102;-28
2023/10/31 07:53:09;;;;;;;10.13;5.72;;;;;;;27.59;34.00;99774.19;5112937;28;20032;-30
2023/10/31 07:55:34;;;;;;;11.45;5.63;;;;;;;27.35;34.39;99771.84;5112638;28;20494;-26
2023/10/31 07:58:00;;;;;;;11.82;5.22;;;;;;;27.36;34.64;99778.94;5112504;28;20057;-27
2023/10/31 08:00:25;;;;;;;10.48;6.97;;;;;;;27.68;33.67;99764.09;5112468;28;20030;-29
2023/10/31 08:02:50;;;;;;;13.23;6.05;;;;;;;27.92;32.99;99762.91;5112453;28;20046;-27
2023/10/31 08:05:16;;;;;;;10.23;5.70;;;;;;;27.91;32.80;99760.47;5112657;28;20449;-26
2023/10/31 08:07:41;;;;;;;9.77;5.30;;;;;;;27.84;32.79;99756.25;5112721;28;20038;-27
2023/10/31 08:10:07;;;;;;;10.77;5.50;;;;;;;27.82;32.84;99746.78;5112926;28;20070;-28
2023/10/31 08:12:32;;;;;;;10.70;5.25;;;;;;;27.44;33.62;99739.91;5112649;28;20024;-28
2023/10/31 08:14:58;;;;;;;8.05;5.05;;;;;;;27.42;33.89;99735.91;5112700;28;20032;-28
2023/10/31 08:17:24;;;;;;;15.15;5.97;;;;;;;27.45;33.25;99729.78;5112671;27;20028;-26
2023/10/31 08:19:49;;;;;;;10.10;5.40;;;;;;;27.36;33.69;99720.75;5112341;28;20023;-28
2023/10/31 08:22:15;;;;;;;12.82;5.10;;;;;;;27.48;33.25;99716.28;5112698;28;20475;-31
2023/10/31 08:24:40;;;;;;;11.07;5.55;;;;;;;27.29;33.98;99715.75;5112507;28;20031;-28
2023/10/31 08:27:07;;;;;;;9.63;5.30;;;;;;;27.23;34.25;99711.53;5112462;28;20030;-28
2023/10/31 08:29:32;;;;;;;10.25;5.35;;;;;;;27.07;34.60;99716.59;5112696;28;20031;-27
2023/10/31 08:31:57;;;;;;;12.60;4.90;;;;;;;27.38;34.03;99721.22;5112355;28;20044;-30
2023/10/31 08:34:23;;;;;;;11.77;5.00;;;;;;;27.43;33.49;99716.44;5112555;28;20135;-30
2023/10/31 08:36:48;;;;;;;11.88;5.53;;;;;;;27.26;33.46;99710.91;5112205;28;20055;-28
2023/10/31 08:39:14;;;;;;;8.52;5.03;;;;;;;27.87;32.89;99717.34;5112020;28;20036;-28
2023/10/31 08:41:53;;;;;;;14.32;5.32;;;;;;;28.01;32.40;99713.69;5111814;28;20030;-29
2023/10/31 08:44:18;;;;;;;8.95;5.65;;;;;;;27.85;32.53;99721.50;5111736;28;20471;-26
2023/10/31 08:46:43;;;;;;;10.88;5.00;;;;;;;27.52;32.65;99716.47;5111045;28;20038;-27
2023/10/31 08:49:09;;;;;;;12.57;5.50;;;;;;;28.07;32.09;99724.13;5111918;28;20376;-29
2023/10/31 08:51:34;;;;;;;17.85;5.20;;;;;;;28.10;32.30;99719.94;5112200;28;20032;-28
2023/10/31 08:54:00;;;;;;;13.88;5.45;;;;;;;28.21;32.16;99713.03;5111509;28;20031;-26
2023/10/31 08:56:27;;;;;;;88.18;11.02;;;;;;;28.27;32.09;99714.50;5111513;28;20408;-27
2023/10/31 08:58:52;;;;;;;31.48;6.60;;;;;;;28.42;32.12;99706.91;5111791;28;20131;-27
2023/10/31 09:01:19;;;;;;;24.55;6.07;;;;;;;28.46;31.97;99703.22;5111816;28;20106;-26
2023/10/31 09:03:44;;;;;;;23.98;7.03;;;;;;;27.87;32.85;99694.66;5111253;28;20020;-26
2023/10/31 09:06:10;;;;;;;16.40;6.05;;;;;;;28.27;32.56;99686.31;5111401;28;20505;-28
2023/10/31 09:08:36;;;;;;;12.40;5.65;;;;;;;28.77;31.94;99684.97;5111377;28;20020;-28
2023/10/31 09:11:03;;;;;;;10.45;5.30;;;;;;;28.55;32.05;99677.78;5111411;28;20111;-27
2023/10/31 09:13:29;;;;;;;10.07;5.35;;;;;;;28.75;31.92;99673.53;5111257;28;20111;-27
2023/10/31 09:15:55;;;;;;;9.88;5.30;;;;;;;28.62;31.55;99667.16;5111368;28;20106;-28
2023/10/31 09:18:20;;;;;;;9.10;5.32;;;;;;;29.00;31.59;99660.91;5111158;28;20035;-27
2023/10/31 09:20:46;;;;;;;13.48;5.15;;;;;;;28.95;31.37;99655.59;5111500;28;20084;-28
2023/10/31 09:23:11;;;;;;;11.30;4.82;;;;;;;29.20;30.77;99646.47;5111313;28;20547;-27
2023/10/31 09:25:36;;;;;;;12.80;4.82;;;;;;;29.06;30.42;99634.94;5111287;28;20085;-29
2023/10/31 09:28:02;;;;;;;8.60;5.00;;;;;;;29.26;30.40;99633.38;5111139;28;20414;-27
2023/10/31 09:30:27;;;;;;;11.23;4.65;;;;;;;28.95;30.53;99630.94;5110884;28;20463;-27
2023/10/31 09:32:53;;;;;;;11.30;4.97;;;;;;;29.26;30.23;99622.44;5111098;28;20102;-29
2023/10/31 09:35:18;;;;;;;10.82;5.07;;;;;;;29.76;29.69;99618.09;5110957;28;20039;-28
2023/10/31 09:37:48;;;;;;;11.23;5.25;;;;;;;29.50;30.07;99599.88;5111252;28;20101;-28
2023/10/31 09:40:14;;;;;;;8.07;4.60;;;;;;;29.43;30.11;99591.38;5110866;28;20503;-28
2023/10/31 09:42:40;;;;;;;7.72;4.65;;;;;;;29.14;30.63;99598.50;5110688;28;20031;-27
2023/10/31 09:45:06;;;;;;;9.00;4.95;;;;;;;28.95;30.87;99593.41;5110899;28;20107;-29
2023/10/31 09:47:32;;;;;;;13.75;5.07;;;;;;;28.98;30.84;99598.25;5110794;28;20035;-28
2023/10/31 09:49:58;;;;;;;11.68;4.65;;;;;;;29.10;30.77;99591.25;5111083;28;20028;-28
2023/10/31 09:52:25;;;;;;;15.98;5.10;;;;;;;29.31;31.03;99586.63;5110708;28;20023;-28
2023/10/31 09:54:52;;;;;;;10.05;4.78;;;;;;;29.36;30.29;99566.44;5110590;28;20339;-28
2023/10/31 09:57:18;;;;;;;9.10;4.10;;;;;;;28.81;30.44;99577.22;5110804;28;20031;-28
2023/10/31 09:59:43;;;;;;;11.10;4.20;;;;;;;28.75;30.52;99569.50;5109625;28;20034;-28
2023/10/31 10:02:09;;;;;;;7.60;4.22;;;;;;;27.61;31.40;99567.00;5110843;28;20024;-27
2023/10/31 10:04:37;;;;;;;8.35;4.20;;;;;;;28.01;32.07;99560.56;5110656;28;20395;-27
2023/10/31 10:07:03;;;;;;;5.82;3.90;;;;;;;28.56;30.74;99556.22;5110745;28;20028;-28
2023/10/31 10:09:29;;;;;;;8.20;3.80;;;;;;;28.67;30.04;99546.50;5111004;28;20077;-27
2023/10/31 10:11:56;;;;;;;10.45;4.43;;;;;;;28.06;31.51;99541.22;5111100;28;20043;-27
2023/10/31 10:14:26;;;;;;;8.02;4.10;;;;;;;28.55;30.83;99535.47;5110497;28;20035;-27
2023/10/31 10:16:52;;;;;;;6.97;3.83;;;;;;;28.14;31.24;99526.75;5110972;28;20023;-28
2023/10/31 10:19:21;;;;;;;7.65;4.18;;;;;;;28.64;30.89;99528.81;5110810;28;20028;-28
2023/10/31 10:21:52;;;;;;;9.52;4.47;;;;;;;28.62;30.64;99517.41;5110855;28;20028;-27
2023/10/31 10:24:19;;;;;;;11.07;4.40;;;;;;;28.44;30.72;99497.50;5110432;28;20031;-28
2023/10/31 10:26:45;;;;;;;11.80;4.15;;;;;;;28.10;31.62;99500.34;5110105;28;20473;-29
2023/10/31 10:29:10;;;;;;;7.95;3.97;;;;;;;28.18;30.97;99502.25;5109351;28;20050;-27
2023/10/31 10:31:36;;;;;;;13.02;4.25;;;;;;;27.86;31.85;99499.75;5110443;28;20502;-28
2023/10/31 10:34:01;;;;;;;8.65;3.97;;;;;;;27.33;32.93;99500.13;5110528;28;20036;-31
2023/10/31 10:36:27;;;;;;;12.48;3.88;;;;;;;27.45;32.91;99492.88;5110403;28;20028;-28
2023/10/31 10:38:57;;;;;;;7.70;3.92;;;;;;;27.49;32.76;99498.50;5110599;28;20016;-29
2023/10/31 10:41:25;;;;;;;11.50;4.57;;;;;;;27.42;32.80;99488.06;5110473;28;20505;-27
2023/10/31 10:43:55;;;;;;;7.47;4.03;;;;;;;26.41;34.19;99492.66;5110439;28;20026;-28
2023/10/31 10:46:24;;;;;;;11.10;4.05;;;;;;;26.62;34.08;99484.75;5110450;28;20028;-28
2023/10/31 10:48:55;;;;;;;10.30;4.45;;;;;;;25.93;35.08;99488.72;5110726;28;20016;-27
2023/10/31 10:51:37;;;;;;;10.32;4.22;;;;;;;25.87;35.65;99476.31;5110403;28;20420;-30
2023/10/31 10:54:11;;;;;;;6.88;3.70;;;;;;;26.43;34.88;99474.84;5110191;28;20024;-28
2023/10/31 10:56:46;;;;;;;7.20;3.95;;;;;;;26.68;34.42;99470.63;5110555;28;20055;-29
2023/10/31 10:59:19;;;;;;;10.02;4.00;;;;;;;26.66;34.90;99474.81;5110567;28;20026;-28
2023/10/31 11:01:47;;;;;;;8.10;4.07;;;;;;;26.92;34.67;99467.47;5110165;28;20395;-27
2023/10/31 11:04:13;;;;;;;7.85;4.22;;;;;;;27.02;34.12;99460.88;5110203;28;20018;-28
2023/10/31 11:06:39;;;;;;;10.77;3.95;;;;;;;26.77;34.21;99442.53;5110352;28;20028;-29
2023/10/31 11:09:06;;;;;;;8.25;3.80;;;;;;;27.06;34.00;99440.00;5110086;28;20016;-28
2023/10/31 11:11:32;;;;;;;7.53;3.70;;;;;;;27.55;33.26;99450.78;5113547;28;20034;-29
2023/10/31 11:13:59;;;;;;;14.35;4.38;;;;;;;27.04;33.92;99442.25;5113902;28;20522;-29
2023/10/31 11:16:41;;;;;;;11.05;4.60;;;;;;;26.92;34.65;99440.16;5113973;28;20069;-28
2023/10/31 11:19:07;;;;;;;8.93;4.20;;;;;;;26.74;34.49;99437.75;5113933;27;20020;-28
2023/10/31 11:21:34;;;;;;;7.43;3.80;;;;;;;26.80;34.83;99433.72;5113757;28;20015;-28